sensor_id;sensor_type;location;lat;lon;timestamp;P1;durP1;ratioP1;P2;durP2;ratioP2
13173;SDS011;6652;48.802;9.190;2023-08-24T00:01:19;12.25;;;6.38;;
13173;SDS011;6652;48.802;9.190;2023-08-24T00:03:47;15.02;;;6.72;;
13173;SDS011;6652;48.802;9.190;2023-08-24T00:06:14;14.13;;;6.82;;
13173;SDS011;6652;48.802;9.190;2023-08-24T00:08:41;11.93;;;6.55;;
13173;SDS011;6652;48.802;9.190;2023-08-24T00:11:08;22.70;;;6.93;;
13173;SDS011;6652;48.802;9.190;2023-08-24T00:13:39;20.90;;;7.25;;
13173;SDS011;6652;48.802;9.190;2023-08-24T00:16:07;17.30;;;6.47;;
13173;SDS011;6652;48.802;9.190;2023-08-24T00:18:33;13.27;;;6.80;;
13173;SDS011;6652;48.802;9.190;2023-08-24T00:21:01;17.58;;;7.43;;
13173;SDS011;6652;48.802;9.190;2023-08-24T00:23:28;13.68;;;7.25;;
13173;SDS011;6652;48.802;9.190;2023-08-24T00:25:55;12.77;;;7.10;;
13173;SDS011;6652;48.802;9.190;2023-08-24T00:28:22;14.43;;;6.97;;
13173;SDS011;6652;48.802;9.190;2023-08-24T00:30:49;11.88;;;6.63;;
13173;SDS011;6652;48.802;9.190;2023-08-24T00:33:15;10.73;;;6.85;;
13173;SDS011;6652;48.802;9.190;2023-08-24T00:35:42;13.00;;;6.70;;
13173;SDS011;6652;48.802;9.190;2023-08-24T00:38:10;10.38;;;6.68;;
13173;SDS011;6652;48.802;9.190;2023-08-24T00:40:37;16.70;;;7.15;;
13173;SDS011;6652;48.802;9.190;2023-08-24T00:43:04;13.85;;;6.85;;
13173;SDS011;6652;48.802;9.190;2023-08-24T00:45:31;17.65;;;7.03;;
13173;SDS011;6652;48.802;9.190;2023-08-24T00:47:59;12.43;;;6.30;;
13173;SDS011;6652;48.802;9.190;2023-08-24T00:50:26;13.25;;;7.03;;
13173;SDS011;6652;48.802;9.190;2023-08-24T00:52:53;11.38;;;6.78;;
13173;SDS011;6652;48.802;9.190;2023-08-24T00:55:21;12.80;;;6.63;;
13173;SDS011;6652;48.802;9.190;2023-08-24T00:57:48;12.68;;;7.10;;
13173;SDS011;6652;48.802;9.190;2023-08-24T01:00:17;16.30;;;7.40;;
13173;SDS011;6652;48.802;9.190;2023-08-24T01:02:44;16.00;;;8.00;;
13173;SDS011;6652;48.802;9.190;2023-08-24T01:05:11;16.45;;;8.10;;
13173;SDS011;6652;48.802;9.190;2023-08-24T01:07:38;16.50;;;8.00;;
13173;SDS011;6652;48.802;9.190;2023-08-24T01:10:06;15.85;;;7.57;;
13173;SDS011;6652;48.802;9.190;2023-08-24T01:12:38;13.10;;;7.78;;
13173;SDS011;6652;48.802;9.190;2023-08-24T01:15:17;10.00;;;7.40;;
13173;SDS011;6652;48.802;9.190;2023-08-24T01:17:51;17.23;;;7.10;;
13173;SDS011;6652;48.802;9.190;2023-08-24T01:20:21;18.45;;;7.07;;
13173;SDS011;6652;48.802;9.190;2023-08-24T01:22:50;15.48;;;6.88;;
13173;SDS011;6652;48.802;9.190;2023-08-24T01:25:24;15.73;;;7.00;;
13173;SDS011;6652;48.802;9.190;2023-08-24T01:28:00;13.90;;;7.55;;
13173;SDS011;6652;48.802;9.190;2023-08-24T01:30:29;15.73;;;7.25;;
13173;SDS011;6652;48.802;9.190;2023-08-24T01:32:56;15.32;;;7.43;;
13173;SDS011;6652;48.802;9.190;2023-08-24T01:35:23;9.48;;;7.07;;
13173;SDS011;6652;48.802;9.190;2023-08-24T01:37:50;10.52;;;7.00;;
13173;SDS011;6652;48.802;9.190;2023-08-24T01:40:17;12.55;;;7.38;;
13173;SDS011;6652;48.802;9.190;2023-08-24T01:42:51;14.77;;;6.93;;
13173;SDS011;6652;48.802;9.190;2023-08-24T01:45:22;10.73;;;6.65;;
13173;SDS011;6652;48.802;9.190;2023-08-24T01:47:53;14.48;;;7.38;;
13173;SDS011;6652;48.802;9.190;2023-08-24T01:50:21;16.55;;;7.50;;
13173;SDS011;6652;48.802;9.190;2023-08-24T01:52:49;14.88;;;7.63;;
13173;SDS011;6652;48.802;9.190;2023-08-24T01:55:17;15.70;;;7.30;;
13173;SDS011;6652;48.802;9.190;2023-08-24T01:57:44;14.75;;;7.75;;
13173;SDS011;6652;48.802;9.190;2023-08-24T02:00:11;20.98;;;8.48;;
13173;SDS011;6652;48.802;9.190;2023-08-24T02:02:40;13.68;;;7.32;;
13173;SDS011;6652;48.802;9.190;2023-08-24T02:05:07;15.32;;;7.47;;
13173;SDS011;6652;48.802;9.190;2023-08-24T02:07:34;16.35;;;7.68;;
13173;SDS011;6652;48.802;9.190;2023-08-24T02:10:01;14.10;;;7.63;;
13173;SDS011;6652;48.802;9.190;2023-08-24T02:12:28;12.10;;;7.78;;
13173;SDS011;6652;48.802;9.190;2023-08-24T02:14:54;12.20;;;7.32;;
13173;SDS011;6652;48.802;9.190;2023-08-24T02:17:21;12.07;;;7.20;;
13173;SDS011;6652;48.802;9.190;2023-08-24T02:19:50;13.23;;;7.47;;
13173;SDS011;6652;48.802;9.190;2023-08-24T02:22:17;11.68;;;7.00;;
13173;SDS011;6652;48.802;9.190;2023-08-24T02:24:44;14.70;;;8.38;;
13173;SDS011;6652;48.802;9.190;2023-08-24T02:27:11;17.13;;;8.45;;
13173;SDS011;6652;48.802;9.190;2023-08-24T02:29:39;12.40;;;7.85;;
13173;SDS011;6652;48.802;9.190;2023-08-24T02:32:05;11.75;;;7.00;;
13173;SDS011;6652;48.802;9.190;2023-08-24T02:34:32;16.58;;;8.10;;
13173;SDS011;6652;48.802;9.190;2023-08-24T02:37:00;12.02;;;7.72;;
13173;SDS011;6652;48.802;9.190;2023-08-24T02:39:27;16.10;;;7.65;;
13173;SDS011;6652;48.802;9.190;2023-08-24T02:41:54;13.88;;;8.00;;
13173;SDS011;6652;48.802;9.190;2023-08-24T02:44:20;17.17;;;7.88;;
13173;SDS011;6652;48.802;9.190;2023-08-24T02:46:47;18.80;;;8.50;;
13173;SDS011;6652;48.802;9.190;2023-08-24T02:49:14;17.35;;;7.88;;
13173;SDS011;6652;48.802;9.190;2023-08-24T02:51:41;16.15;;;8.10;;
13173;SDS011;6652;48.802;9.190;2023-08-24T02:54:09;13.27;;;7.47;;
13173;SDS011;6652;48.802;9.190;2023-08-24T02:56:36;15.60;;;8.20;;
13173;SDS011;6652;48.802;9.190;2023-08-24T02:59:03;27.60;;;8.38;;
13173;SDS011;6652;48.802;9.190;2023-08-24T03:01:29;16.58;;;8.15;;
13173;SDS011;6652;48.802;9.190;2023-08-24T03:03:56;16.77;;;7.95;;
13173;SDS011;6652;48.802;9.190;2023-08-24T03:06:23;19.10;;;8.55;;
13173;SDS011;6652;48.802;9.190;2023-08-24T03:08:50;15.93;;;7.68;;
13173;SDS011;6652;48.802;9.190;2023-08-24T03:11:18;14.27;;;7.75;;
13173;SDS011;6652;48.802;9.190;2023-08-24T03:13:45;16.30;;;7.47;;
13173;SDS011;6652;48.802;9.190;2023-08-24T03:16:11;18.90;;;8.73;;
13173;SDS011;6652;48.802;9.190;2023-08-24T03:18:38;15.25;;;8.45;;
13173;SDS011;6652;48.802;9.190;2023-08-24T03:21:05;12.80;;;7.97;;
13173;SDS011;6652;48.802;9.190;2023-08-24T03:23:32;14.73;;;7.38;;
13173;SDS011;6652;48.802;9.190;2023-08-24T03:25:59;15.30;;;7.78;;
13173;SDS011;6652;48.802;9.190;2023-08-24T03:28:27;10.90;;;7.13;;
13173;SDS011;6652;48.802;9.190;2023-08-24T03:30:54;13.23;;;7.47;;
13173;SDS011;6652;48.802;9.190;2023-08-24T03:33:21;12.90;;;7.20;;
13173;SDS011;6652;48.802;9.190;2023-08-24T03:35:48;11.45;;;7.90;;
13173;SDS011;6652;48.802;9.190;2023-08-24T03:38:15;11.30;;;7.53;;
13173;SDS011;6652;48.802;9.190;2023-08-24T03:40:42;10.98;;;7.85;;
13173;SDS011;6652;48.802;9.190;2023-08-24T03:43:09;14.98;;;7.75;;
13173;SDS011;6652;48.802;9.190;2023-08-24T03:45:37;15.98;;;9.18;;
13173;SDS011;6652;48.802;9.190;2023-08-24T03:48:04;18.08;;;9.07;;
13173;SDS011;6652;48.802;9.190;2023-08-24T03:50:32;19.40;;;9.57;;
13173;SDS011;6652;48.802;9.190;2023-08-24T03:52:58;14.68;;;8.48;;
13173;SDS011;6652;48.802;9.190;2023-08-24T03:55:25;15.77;;;9.10;;
13173;SDS011;6652;48.802;9.190;2023-08-24T03:57:52;16.20;;;9.50;;
13173;SDS011;6652;48.802;9.190;2023-08-24T04:00:19;17.20;;;7.95;;
13173;SDS011;6652;48.802;9.190;2023-08-24T04:02:47;13.05;;;7.75;;
13173;SDS011;6652;48.802;9.190;2023-08-24T04:05:14;12.80;;;8.32;;
13173;SDS011;6652;48.802;9.190;2023-08-24T04:07:41;13.20;;;7.90;;
13173;SDS011;6652;48.802;9.190;2023-08-24T04:10:08;15.00;;;8.82;;
13173;SDS011;6652;48.802;9.190;2023-08-24T04:12:35;14.77;;;8.40;;
13173;SDS011;6652;48.802;9.190;2023-08-24T04:15:03;13.05;;;9.18;;
13173;SDS011;6652;48.802;9.190;2023-08-24T04:17:30;17.83;;;8.57;;
13173;SDS011;6652;48.802;9.190;2023-08-24T04:19:58;14.75;;;8.23;;
13173;SDS011;6652;48.802;9.190;2023-08-24T04:22:25;17.98;;;8.23;;
13173;SDS011;6652;48.802;9.190;2023-08-24T04:24:52;16.42;;;9.68;;
13173;SDS011;6652;48.802;9.190;2023-08-24T04:27:19;16.92;;;9.75;;
13173;SDS011;6652;48.802;9.190;2023-08-24T04:29:47;17.23;;;9.20;;
13173;SDS011;6652;48.802;9.190;2023-08-24T04:32:14;18.02;;;10.15;;
13173;SDS011;6652;48.802;9.190;2023-08-24T04:34:41;22.42;;;9.18;;
13173;SDS011;6652;48.802;9.190;2023-08-24T04:37:09;18.60;;;9.18;;
13173;SDS011;6652;48.802;9.190;2023-08-24T04:39:36;19.27;;;9.57;;
13173;SDS011;6652;48.802;9.190;2023-08-24T04:42:02;16.70;;;9.30;;
13173;SDS011;6652;48.802;9.190;2023-08-24T04:44:30;25.88;;;10.63;;
13173;SDS011;6652;48.802;9.190;2023-08-24T04:46:57;24.00;;;10.32;;
13173;SDS011;6652;48.802;9.190;2023-08-24T04:49:23;20.20;;;10.07;;
13173;SDS011;6652;48.802;9.190;2023-08-24T04:51:50;19.83;;;9.52;;
13173;SDS011;6652;48.802;9.190;2023-08-24T04:54:18;16.63;;;9.95;;
13173;SDS011;6652;48.802;9.190;2023-08-24T04:56:46;22.23;;;11.02;;
13173;SDS011;6652;48.802;9.190;2023-08-24T04:59:13;45.42;;;18.50;;
13173;SDS011;6652;48.802;9.190;2023-08-24T05:01:40;27.88;;;13.10;;
13173;SDS011;6652;48.802;9.190;2023-08-24T05:04:06;28.33;;;12.68;;
13173;SDS011;6652;48.802;9.190;2023-08-24T05:06:33;27.95;;;12.15;;
13173;SDS011;6652;48.802;9.190;2023-08-24T05:09:00;16.35;;;8.13;;
13173;SDS011;6652;48.802;9.190;2023-08-24T05:11:28;21.98;;;8.43;;
13173;SDS011;6652;48.802;9.190;2023-08-24T05:13:55;20.33;;;8.73;;
13173;SDS011;6652;48.802;9.190;2023-08-24T05:16:22;19.40;;;8.75;;
13173;SDS011;6652;48.802;9.190;2023-08-24T05:18:49;15.32;;;8.27;;
13173;SDS011;6652;48.802;9.190;2023-08-24T05:21:16;21.35;;;8.65;;
13173;SDS011;6652;48.802;9.190;2023-08-24T05:23:43;19.63;;;8.27;;
13173;SDS011;6652;48.802;9.190;2023-08-24T05:26:10;14.90;;;8.23;;
13173;SDS011;6652;48.802;9.190;2023-08-24T05:28:38;20.80;;;9.10;;
13173;SDS011;6652;48.802;9.190;2023-08-24T05:31:05;22.35;;;9.65;;
13173;SDS011;6652;48.802;9.190;2023-08-24T05:33:32;17.70;;;9.05;;
13173;SDS011;6652;48.802;9.190;2023-08-24T05:35:59;23.02;;;8.50;;
13173;SDS011;6652;48.802;9.190;2023-08-24T05:38:25;14.82;;;8.18;;
13173;SDS011;6652;48.802;9.190;2023-08-24T05:40:52;16.75;;;8.88;;
13173;SDS011;6652;48.802;9.190;2023-08-24T05:43:19;32.35;;;9.70;;
13173;SDS011;6652;48.802;9.190;2023-08-24T05:45:47;73.00;;;11.02;;
13173;SDS011;6652;48.802;9.190;2023-08-24T05:48:14;19.25;;;7.50;;
13173;SDS011;6652;48.802;9.190;2023-08-24T05:50:42;25.05;;;8.30;;
13173;SDS011;6652;48.802;9.190;2023-08-24T05:53:09;17.92;;;8.10;;
13173;SDS011;6652;48.802;9.190;2023-08-24T05:55:36;23.85;;;8.10;;
13173;SDS011;6652;48.802;9.190;2023-08-24T05:58:03;17.50;;;7.68;;
13173;SDS011;6652;48.802;9.190;2023-08-24T06:00:30;16.05;;;6.85;;
13173;SDS011;6652;48.802;9.190;2023-08-24T06:02:59;21.55;;;7.70;;
13173;SDS011;6652;48.802;9.190;2023-08-24T06:05:26;21.45;;;7.32;;
13173;SDS011;6652;48.802;9.190;2023-08-24T06:07:53;22.48;;;7.70;;
13173;SDS011;6652;48.802;9.190;2023-08-24T06:10:19;18.63;;;7.25;;
13173;SDS011;6652;48.802;9.190;2023-08-24T06:12:47;25.50;;;8.82;;
13173;SDS011;6652;48.802;9.190;2023-08-24T06:15:13;20.42;;;7.40;;
13173;SDS011;6652;48.802;9.190;2023-08-24T06:17:41;18.25;;;7.38;;
13173;SDS011;6652;48.802;9.190;2023-08-24T06:20:10;21.13;;;7.70;;
13173;SDS011;6652;48.802;9.190;2023-08-24T06:22:38;20.80;;;8.68;;
13173;SDS011;6652;48.802;9.190;2023-08-24T06:25:05;15.13;;;7.15;;
13173;SDS011;6652;48.802;9.190;2023-08-24T06:27:33;16.08;;;6.63;;
13173;SDS011;6652;48.802;9.190;2023-08-24T06:30:01;11.25;;;5.90;;
13173;SDS011;6652;48.802;9.190;2023-08-24T06:32:28;11.13;;;6.25;;
13173;SDS011;6652;48.802;9.190;2023-08-24T06:34:55;12.18;;;5.93;;
13173;SDS011;6652;48.802;9.190;2023-08-24T06:37:23;9.02;;;5.45;;
13173;SDS011;6652;48.802;9.190;2023-08-24T06:39:50;27.13;;;6.47;;
13173;SDS011;6652;48.802;9.190;2023-08-24T06:42:17;22.13;;;5.88;;
13173;SDS011;6652;48.802;9.190;2023-08-24T06:44:44;18.23;;;6.30;;
13173;SDS011;6652;48.802;9.190;2023-08-24T06:47:10;12.13;;;6.45;;
13173;SDS011;6652;48.802;9.190;2023-08-24T06:49:37;14.65;;;7.10;;
13173;SDS011;6652;48.802;9.190;2023-08-24T06:52:04;18.27;;;5.78;;
13173;SDS011;6652;48.802;9.190;2023-08-24T06:54:34;18.75;;;6.65;;
13173;SDS011;6652;48.802;9.190;2023-08-24T06:57:01;19.55;;;6.30;;
13173;SDS011;6652;48.802;9.190;2023-08-24T06:59:28;23.95;;;6.90;;
13173;SDS011;6652;48.802;9.190;2023-08-24T07:01:55;25.42;;;7.07;;
13173;SDS011;6652;48.802;9.190;2023-08-24T07:04:22;20.50;;;6.43;;
13173;SDS011;6652;48.802;9.190;2023-08-24T07:06:49;24.45;;;5.88;;
13173;SDS011;6652;48.802;9.190;2023-08-24T07:09:16;18.77;;;5.72;;
13173;SDS011;6652;48.802;9.190;2023-08-24T07:11:44;10.93;;;5.65;;
13173;SDS011;6652;48.802;9.190;2023-08-24T07:14:11;13.82;;;5.93;;
13173;SDS011;6652;48.802;9.190;2023-08-24T07:16:38;16.98;;;6.00;;
13173;SDS011;6652;48.802;9.190;2023-08-24T07:19:05;13.57;;;6.03;;
13173;SDS011;6652;48.802;9.190;2023-08-24T07:21:31;14.90;;;6.82;;
13173;SDS011;6652;48.802;9.190;2023-08-24T07:23:58;20.45;;;6.90;;
13173;SDS011;6652;48.802;9.190;2023-08-24T07:26:26;16.58;;;6.95;;
13173;SDS011;6652;48.802;9.190;2023-08-24T07:28:56;22.25;;;6.95;;
13173;SDS011;6652;48.802;9.190;2023-08-24T07:31:23;16.67;;;6.60;;
13173;SDS011;6652;48.802;9.190;2023-08-24T07:33:50;18.50;;;6.65;;
13173;SDS011;6652;48.802;9.190;2023-08-24T07:36:17;13.57;;;7.18;;
13173;SDS011;6652;48.802;9.190;2023-08-24T07:38:44;16.23;;;6.22;;
13173;SDS011;6652;48.802;9.190;2023-08-24T07:41:12;23.10;;;6.75;;
13173;SDS011;6652;48.802;9.190;2023-08-24T07:43:39;13.45;;;5.68;;
13173;SDS011;6652;48.802;9.190;2023-08-24T07:46:07;15.05;;;5.10;;
13173;SDS011;6652;48.802;9.190;2023-08-24T07:48:34;10.18;;;4.10;;
13173;SDS011;6652;48.802;9.190;2023-08-24T07:51:01;13.75;;;4.95;;
13173;SDS011;6652;48.802;9.190;2023-08-24T07:53:28;12.90;;;4.10;;
13173;SDS011;6652;48.802;9.190;2023-08-24T07:55:55;12.70;;;4.60;;
13173;SDS011;6652;48.802;9.190;2023-08-24T07:58:23;6.30;;;4.00;;
13173;SDS011;6652;48.802;9.190;2023-08-24T08:00:49;12.52;;;3.80;;
13173;SDS011;6652;48.802;9.190;2023-08-24T08:03:18;10.65;;;4.10;;
13173;SDS011;6652;48.802;9.190;2023-08-24T08:05:45;9.88;;;4.00;;
13173;SDS011;6652;48.802;9.190;2023-08-24T08:08:12;18.75;;;4.13;;
13173;SDS011;6652;48.802;9.190;2023-08-24T08:10:39;10.38;;;3.72;;
13173;SDS011;6652;48.802;9.190;2023-08-24T08:13:07;8.25;;;3.78;;
13173;SDS011;6652;48.802;9.190;2023-08-24T08:15:36;9.68;;;4.00;;
13173;SDS011;6652;48.802;9.190;2023-08-24T08:18:04;12.57;;;3.90;;
13173;SDS011;6652;48.802;9.190;2023-08-24T08:20:32;7.40;;;3.50;;
13173;SDS011;6652;48.802;9.190;2023-08-24T08:22:59;13.95;;;4.72;;
13173;SDS011;6652;48.802;9.190;2023-08-24T08:25:26;8.65;;;3.42;;
13173;SDS011;6652;48.802;9.190;2023-08-24T08:27:53;9.65;;;3.42;;
13173;SDS011;6652;48.802;9.190;2023-08-24T08:30:20;12.73;;;3.88;;
13173;SDS011;6652;48.802;9.190;2023-08-24T08:32:47;13.75;;;3.63;;
13173;SDS011;6652;48.802;9.190;2023-08-24T08:35:16;16.48;;;3.70;;
13173;SDS011;6652;48.802;9.190;2023-08-24T08:37:44;11.35;;;4.03;;
13173;SDS011;6652;48.802;9.190;2023-08-24T08:40:11;11.02;;;3.45;;
13173;SDS011;6652;48.802;9.190;2023-08-24T08:42:38;13.90;;;3.55;;
13173;SDS011;6652;48.802;9.190;2023-08-24T08:45:08;10.75;;;3.08;;
13173;SDS011;6652;48.802;9.190;2023-08-24T08:47:35;5.60;;;3.55;;
13173;SDS011;6652;48.802;9.190;2023-08-24T08:50:03;10.63;;;3.80;;
13173;SDS011;6652;48.802;9.190;2023-08-24T08:52:31;9.18;;;3.55;;
13173;SDS011;6652;48.802;9.190;2023-08-24T08:55:00;13.60;;;3.80;;
13173;SDS011;6652;48.802;9.190;2023-08-24T08:57:31;8.60;;;3.22;;
13173;SDS011;6652;48.802;9.190;2023-08-24T08:59:58;14.45;;;3.88;;
13173;SDS011;6652;48.802;9.190;2023-08-24T09:02:25;12.82;;;3.85;;
13173;SDS011;6652;48.802;9.190;2023-08-24T09:04:55;6.43;;;3.67;;
13173;SDS011;6652;48.802;9.190;2023-08-24T09:07:22;12.38;;;3.97;;
13173;SDS011;6652;48.802;9.190;2023-08-24T09:09:49;9.65;;;3.38;;
13173;SDS011;6652;48.802;9.190;2023-08-24T09:12:17;8.90;;;3.63;;
13173;SDS011;6652;48.802;9.190;2023-08-24T09:14:44;5.32;;;3.28;;
13173;SDS011;6652;48.802;9.190;2023-08-24T09:17:13;13.02;;;3.90;;
13173;SDS011;6652;48.802;9.190;2023-08-24T09:19:46;16.83;;;4.20;;
13173;SDS011;6652;48.802;9.190;2023-08-24T09:22:16;10.90;;;3.22;;
13173;SDS011;6652;48.802;9.190;2023-08-24T09:24:43;11.50;;;3.42;;
13173;SDS011;6652;48.802;9.190;2023-08-24T09:27:14;6.22;;;3.60;;
13173;SDS011;6652;48.802;9.190;2023-08-24T09:29:43;11.57;;;4.05;;
13173;SDS011;6652;48.802;9.190;2023-08-24T09:32:13;13.60;;;3.30;;
13173;SDS011;6652;48.802;9.190;2023-08-24T09:34:40;10.40;;;3.65;;
13173;SDS011;6652;48.802;9.190;2023-08-24T09:37:12;17.90;;;3.75;;
13173;SDS011;6652;48.802;9.190;2023-08-24T09:39:40;13.90;;;3.78;;
13173;SDS011;6652;48.802;9.190;2023-08-24T09:42:06;8.20;;;3.63;;
13173;SDS011;6652;48.802;9.190;2023-08-24T09:44:33;16.70;;;3.88;;
13173;SDS011;6652;48.802;9.190;2023-08-24T09:47:02;17.50;;;3.53;;
13173;SDS011;6652;48.802;9.190;2023-08-24T09:49:36;10.23;;;3.45;;
13173;SDS011;6652;48.802;9.190;2023-08-24T09:52:03;10.07;;;3.60;;
13173;SDS011;6652;48.802;9.190;2023-08-24T09:54:36;14.27;;;4.38;;
13173;SDS011;6652;48.802;9.190;2023-08-24T09:57:04;13.77;;;3.40;;
13173;SDS011;6652;48.802;9.190;2023-08-24T09:59:34;12.75;;;3.47;;
13173;SDS011;6652;48.802;9.190;2023-08-24T10:02:06;15.18;;;3.70;;
13173;SDS011;6652;48.802;9.190;2023-08-24T10:04:41;10.85;;;4.03;;
13173;SDS011;6652;48.802;9.190;2023-08-24T10:07:10;17.10;;;3.88;;
13173;SDS011;6652;48.802;9.190;2023-08-24T10:09:50;8.70;;;3.95;;
13173;SDS011;6652;48.802;9.190;2023-08-24T10:12:24;12.13;;;3.58;;
13173;SDS011;6652;48.802;9.190;2023-08-24T10:14:56;11.88;;;3.65;;
13173;SDS011;6652;48.802;9.190;2023-08-24T10:17:28;7.80;;;3.90;;
13173;SDS011;6652;48.802;9.190;2023-08-24T10:19:58;11.02;;;3.53;;
13173;SDS011;6652;48.802;9.190;2023-08-24T10:22:29;10.75;;;3.70;;
13173;SDS011;6652;48.802;9.190;2023-08-24T10:24:57;6.93;;;4.00;;
13173;SDS011;6652;48.802;9.190;2023-08-24T10:27:24;5.93;;;3.60;;
13173;SDS011;6652;48.802;9.190;2023-08-24T10:29:53;11.38;;;3.78;;
13173;SDS011;6652;48.802;9.190;2023-08-24T10:32:20;10.70;;;4.35;;
13173;SDS011;6652;48.802;9.190;2023-08-24T10:34:50;11.52;;;3.67;;
13173;SDS011;6652;48.802;9.190;2023-08-24T10:37:22;10.13;;;4.00;;
13173;SDS011;6652;48.802;9.190;2023-08-24T10:39:51;8.45;;;4.05;;
13173;SDS011;6652;48.802;9.190;2023-08-24T10:42:18;8.45;;;3.92;;
13173;SDS011;6652;48.802;9.190;2023-08-24T10:44:46;12.05;;;3.95;;
13173;SDS011;6652;48.802;9.190;2023-08-24T10:47:15;8.48;;;3.83;;
13173;SDS011;6652;48.802;9.190;2023-08-24T10:49:45;12.20;;;4.00;;
13173;SDS011;6652;48.802;9.190;2023-08-24T10:52:26;13.03;;;4.13;;
13173;SDS011;6652;48.802;9.190;2023-08-24T10:54:57;10.25;;;4.07;;
13173;SDS011;6652;48.802;9.190;2023-08-24T10:57:35;9.63;;;4.10;;
13173;SDS011;6652;48.802;9.190;2023-08-24T11:00:04;16.13;;;4.95;;
13173;SDS011;6652;48.802;9.190;2023-08-24T11:02:43;6.72;;;4.18;;
13173;SDS011;6652;48.802;9.190;2023-08-24T11:05:16;9.70;;;4.30;;
13173;SDS011;6652;48.802;9.190;2023-08-24T11:07:48;7.47;;;4.40;;
13173;SDS011;6652;48.802;9.190;2023-08-24T11:10:16;14.68;;;4.68;;
13173;SDS011;6652;48.802;9.190;2023-08-24T11:15:33;19.95;;;5.65;;
13173;SDS011;6652;48.802;9.190;2023-08-24T11:18:19;22.73;;;4.75;;
13173;SDS011;6652;48.802;9.190;2023-08-24T11:20:50;10.93;;;5.03;;
13173;SDS011;6652;48.802;9.190;2023-08-24T11:23:18;9.70;;;5.22;;
13173;SDS011;6652;48.802;9.190;2023-08-24T11:25:45;12.75;;;5.00;;
13173;SDS011;6652;48.802;9.190;2023-08-24T11:28:16;6.15;;;4.68;;
13173;SDS011;6652;48.802;9.190;2023-08-24T11:30:44;18.90;;;4.72;;
13173;SDS011;6652;48.802;9.190;2023-08-24T11:33:11;17.75;;;4.68;;
13173;SDS011;6652;48.802;9.190;2023-08-24T11:35:39;11.48;;;4.68;;
13173;SDS011;6652;48.802;9.190;2023-08-24T11:38:09;10.43;;;5.10;;
13173;SDS011;6652;48.802;9.190;2023-08-24T11:40:36;8.05;;;4.60;;
13173;SDS011;6652;48.802;9.190;2023-08-24T11:43:03;10.68;;;4.95;;
13173;SDS011;6652;48.802;9.190;2023-08-24T11:45:30;17.38;;;5.00;;
13173;SDS011;6652;48.802;9.190;2023-08-24T11:47:58;9.82;;;4.70;;
13173;SDS011;6652;48.802;9.190;2023-08-24T11:50:26;10.32;;;5.40;;
13173;SDS011;6652;48.802;9.190;2023-08-24T11:52:53;20.27;;;4.85;;
13173;SDS011;6652;48.802;9.190;2023-08-24T11:55:22;13.40;;;5.00;;
13173;SDS011;6652;48.802;9.190;2023-08-24T11:57:49;9.60;;;4.90;;
13173;SDS011;6652;48.802;9.190;2023-08-24T12:00:16;10.93;;;5.18;;
13173;SDS011;6652;48.802;9.190;2023-08-24T12:02:44;8.60;;;4.63;;
13173;SDS011;6652;48.802;9.190;2023-08-24T12:05:21;16.63;;;5.55;;
13173;SDS011;6652;48.802;9.190;2023-08-24T12:07:50;17.25;;;5.25;;
13173;SDS011;6652;48.802;9.190;2023-08-24T12:10:18;13.70;;;5.13;;
13173;SDS011;6652;48.802;9.190;2023-08-24T12:12:46;17.73;;;4.70;;
13173;SDS011;6652;48.802;9.190;2023-08-24T12:15:16;13.02;;;4.88;;
13173;SDS011;6652;48.802;9.190;2023-08-24T12:17:45;9.23;;;5.05;;
13173;SDS011;6652;48.802;9.190;2023-08-24T12:20:18;14.40;;;4.97;;
13173;SDS011;6652;48.802;9.190;2023-08-24T12:22:53;11.93;;;5.38;;
13173;SDS011;6652;48.802;9.190;2023-08-24T12:25:23;11.85;;;5.13;;
13173;SDS011;6652;48.802;9.190;2023-08-24T12:27:52;11.18;;;5.13;;
13173;SDS011;6652;48.802;9.190;2023-08-24T12:30:19;14.35;;;5.30;;
13173;SDS011;6652;48.802;9.190;2023-08-24T12:32:47;16.92;;;5.35;;
13173;SDS011;6652;48.802;9.190;2023-08-24T12:35:15;17.27;;;4.82;;
13173;SDS011;6652;48.802;9.190;2023-08-24T12:37:43;18.10;;;5.13;;
13173;SDS011;6652;48.802;9.190;2023-08-24T12:40:10;13.15;;;5.13;;
13173;SDS011;6652;48.802;9.190;2023-08-24T12:42:38;13.00;;;4.57;;
13173;SDS011;6652;48.802;9.190;2023-08-24T12:45:07;11.13;;;4.85;;
13173;SDS011;6652;48.802;9.190;2023-08-24T12:47:34;14.07;;;5.30;;
13173;SDS011;6652;48.802;9.190;2023-08-24T12:50:04;15.75;;;4.88;;
13173;SDS011;6652;48.802;9.190;2023-08-24T12:52:34;14.18;;;4.82;;
13173;SDS011;6652;48.802;9.190;2023-08-24T12:55:01;15.00;;;5.10;;
13173;SDS011;6652;48.802;9.190;2023-08-24T12:57:29;8.95;;;4.55;;
13173;SDS011;6652;48.802;9.190;2023-08-24T12:59:56;8.75;;;4.30;;
13173;SDS011;6652;48.802;9.190;2023-08-24T13:02:24;8.95;;;4.85;;
13173;SDS011;6652;48.802;9.190;2023-08-24T13:04:51;11.75;;;5.32;;
13173;SDS011;6652;48.802;9.190;2023-08-24T13:07:18;14.98;;;5.68;;
13173;SDS011;6652;48.802;9.190;2023-08-24T13:09:45;14.50;;;4.95;;
13173;SDS011;6652;48.802;9.190;2023-08-24T13:12:11;17.30;;;5.65;;
13173;SDS011;6652;48.802;9.190;2023-08-24T13:14:38;12.20;;;5.00;;
13173;SDS011;6652;48.802;9.190;2023-08-24T13:17:05;19.00;;;4.80;;
13173;SDS011;6652;48.802;9.190;2023-08-24T13:19:33;10.15;;;4.88;;
13173;SDS011;6652;48.802;9.190;2023-08-24T13:22:00;11.93;;;4.90;;
13173;SDS011;6652;48.802;9.190;2023-08-24T13:24:26;13.40;;;4.78;;
13173;SDS011;6652;48.802;9.190;2023-08-24T13:26:53;15.77;;;4.88;;
13173;SDS011;6652;48.802;9.190;2023-08-24T13:29:20;18.88;;;4.78;;
13173;SDS011;6652;48.802;9.190;2023-08-24T13:31:46;17.63;;;5.22;;
13173;SDS011;6652;48.802;9.190;2023-08-24T13:34:13;12.48;;;4.63;;
13173;SDS011;6652;48.802;9.190;2023-08-24T13:36:41;14.18;;;4.93;;
13173;SDS011;6652;48.802;9.190;2023-08-24T13:39:08;14.93;;;4.95;;
13173;SDS011;6652;48.802;9.190;2023-08-24T13:41:35;13.70;;;4.38;;
13173;SDS011;6652;48.802;9.190;2023-08-24T13:44:02;10.68;;;5.10;;
13173;SDS011;6652;48.802;9.190;2023-08-24T13:46:30;10.77;;;4.50;;
13173;SDS011;6652;48.802;9.190;2023-08-24T13:48:56;13.23;;;4.80;;
13173;SDS011;6652;48.802;9.190;2023-08-24T13:51:23;19.42;;;5.53;;
13173;SDS011;6652;48.802;9.190;2023-08-24T13:53:51;21.40;;;5.75;;
13173;SDS011;6652;48.802;9.190;2023-08-24T13:56:18;13.05;;;5.00;;
13173;SDS011;6652;48.802;9.190;2023-08-24T13:58:45;14.15;;;4.65;;
13173;SDS011;6652;48.802;9.190;2023-08-24T14:01:12;18.33;;;5.35;;
13173;SDS011;6652;48.802;9.190;2023-08-24T14:03:39;13.52;;;4.43;;
13173;SDS011;6652;48.802;9.190;2023-08-24T14:06:08;11.60;;;4.63;;
13173;SDS011;6652;48.802;9.190;2023-08-24T14:08:35;14.32;;;4.75;;
13173;SDS011;6652;48.802;9.190;2023-08-24T14:11:03;19.67;;;4.85;;
13173;SDS011;6652;48.802;9.190;2023-08-24T14:13:30;18.48;;;4.95;;
13173;SDS011;6652;48.802;9.190;2023-08-24T14:15:57;24.55;;;5.50;;
13173;SDS011;6652;48.802;9.190;2023-08-24T14:18:24;21.85;;;5.68;;
13173;SDS011;6652;48.802;9.190;2023-08-24T14:20:51;16.85;;;4.90;;
13173;SDS011;6652;48.802;9.190;2023-08-24T14:23:18;11.88;;;4.90;;
13173;SDS011;6652;48.802;9.190;2023-08-24T14:25:45;21.35;;;4.88;;
13173;SDS011;6652;48.802;9.190;2023-08-24T14:28:18;16.88;;;4.38;;
13173;SDS011;6652;48.802;9.190;2023-08-24T14:30:46;18.63;;;4.80;;
13173;SDS011;6652;48.802;9.190;2023-08-24T14:33:13;18.27;;;5.18;;
13173;SDS011;6652;48.802;9.190;2023-08-24T14:35:39;19.88;;;4.82;;
13173;SDS011;6652;48.802;9.190;2023-08-24T14:38:06;17.75;;;5.18;;
13173;SDS011;6652;48.802;9.190;2023-08-24T14:40:34;20.15;;;4.47;;
13173;SDS011;6652;48.802;9.190;2023-08-24T14:43:01;15.45;;;4.72;;
13173;SDS011;6652;48.802;9.190;2023-08-24T14:45:29;21.00;;;6.10;;
13173;SDS011;6652;48.802;9.190;2023-08-24T14:47:56;14.02;;;4.72;;
13173;SDS011;6652;48.802;9.190;2023-08-24T14:50:23;21.08;;;4.40;;
13173;SDS011;6652;48.802;9.190;2023-08-24T14:52:49;17.02;;;4.15;;
13173;SDS011;6652;48.802;9.190;2023-08-24T14:55:16;16.02;;;4.68;;